Time;durP1;ratioP1;P1;durP2;ratioP2;P2;SDS_P1;SDS_P2;PMS_P1;PMS_P2;Temp;Humidity;BMP_temperature;BMP_pressure;BME280_temperature;BME280_humidity;BME280_pressure;Samples;Min_cycle;Max_cycle;Signal;HPM_P1;HPM_P2
2022/08/14 00:02:18;;;;;;;15.98;9.70;;;;;;;18.26;93.89;99182.78;8390530;28;20037;-75
2022/08/14 00:06:19;;;;;;;13.82;11.00;;;;;;;18.23;93.69;99172.59;8388438;28;20041;-76
2022/08/14 00:10:21;;;;;;;15.32;11.18;;;;;;;18.19;93.92;99166.25;8394676;28;20055;-76
2022/08/14 00:14:23;;;;;;;13.90;10.30;;;;;;;18.15;93.76;99161.47;8381918;28;20049;-75
2022/08/14 00:18:25;;;;;;;17.05;10.85;;;;;;;18.11;93.60;99160.63;8392496;28;20045;-76
2022/08/14 00:22:26;;;;;;;16.52;11.02;;;;;;;18.03;93.64;99153.41;8373501;28;20408;-76
2022/08/14 00:26:27;;;;;;;19.75;12.30;;;;;;;17.97;93.74;99143.13;8386430;28;20080;-75
2022/08/14 00:30:28;;;;;;;16.65;10.95;;;;;;;17.90;93.71;99132.81;8384451;28;20504;-76
2022/08/14 00:34:29;;;;;;;18.00;10.43;;;;;;;17.84;93.65;99134.25;8395879;28;20060;-75
2022/08/14 00:38:30;;;;;;;16.45;11.50;;;;;;;17.77;93.48;99128.59;8403488;28;20097;-76
2022/08/14 00:42:31;;;;;;;20.40;12.50;;;;;;;17.70;93.43;99129.25;8345425;28;20044;-76
2022/08/14 00:46:32;;;;;;;19.38;13.57;;;;;;;17.63;93.41;99131.03;8394079;28;20044;-76
2022/08/14 00:50:33;;;;;;;23.42;14.40;;;;;;;17.57;93.56;99126.94;8388932;28;20048;-75
2022/08/14 00:54:37;;;;;;;24.27;14.57;;;;;;;17.54;93.76;99124.94;8390156;28;20056;-75
2022/08/14 00:58:38;;;;;;;25.02;15.20;;;;;;;17.48;93.85;99126.34;8360961;28;20099;-75
2022/08/14 01:02:43;;;;;;;28.17;17.98;;;;;;;17.47;93.97;99119.28;8371929;28;20075;-77
2022/08/14 01:06:44;;;;;;;28.58;19.02;;;;;;;17.47;93.90;99122.81;8386696;28;20123;-75
2022/08/14 01:10:49;;;;;;;31.10;17.55;;;;;;;17.45;93.86;99132.53;8399248;28;20049;-75
2022/08/14 01:14:54;;;;;;;31.42;19.25;;;;;;;17.45;93.82;99116.13;8400106;28;20094;-75
2022/08/14 01:23:14;;;;;;;28.38;18.80;;;;;;;17.41;93.56;99115.25;8398935;28;20051;-76
2022/08/14 01:27:19;;;;;;;28.17;18.23;;;;;;;17.43;93.51;99118.41;8370136;28;20060;-76
2022/08/14 01:31:22;;;;;;;27.52;18.17;;;;;;;17.44;93.36;99109.09;8397196;28;20060;-75
2022/08/14 01:35:27;;;;;;;27.80;16.92;;;;;;;17.43;93.44;99112.97;8397144;28;20611;-76
2022/08/14 01:39:27;;;;;;;25.42;17.58;;;;;;;17.39;93.88;99112.09;8364103;28;20053;-76
2022/08/14 01:43:37;;;;;;;30.33;17.83;;;;;;;17.37;94.03;99109.69;8374653;28;20140;-75
2022/08/14 01:47:38;;;;;;;21.70;13.90;;;;;;;17.34;93.84;99115.88;8387613;28;20033;-76
2022/08/14 01:51:40;;;;;;;28.92;16.52;;;;;;;17.29;94.10;99118.84;8394981;28;20514;-76
2022/08/14 01:55:41;;;;;;;23.58;15.43;;;;;;;17.27;94.18;99116.50;8407930;28;20056;-76
2022/08/14 01:59:43;;;;;;;26.25;14.25;;;;;;;17.23;94.09;99121.06;8392288;28;20052;-76
2022/08/14 02:03:45;;;;;;;21.30;15.90;;;;;;;17.17;94.34;99122.47;8376823;28;20123;-75
2022/08/14 02:07:46;;;;;;;20.60;15.07;;;;;;;17.16;94.31;99107.25;8386795;28;20052;-76
2022/08/14 02:11:49;;;;;;;22.27;13.15;;;;;;;17.14;94.56;99106.78;8382186;28;20492;-76
2022/08/14 02:15:50;;;;;;;18.75;12.48;;;;;;;17.14;94.18;99106.78;8379196;28;20408;-76
2022/08/14 02:19:52;;;;;;;17.20;13.77;;;;;;;17.12;93.93;99098.19;8387179;28;20056;-76
2022/08/14 02:23:54;;;;;;;21.20;12.90;;;;;;;17.09;94.05;99098.06;8396169;28;20491;-77
2022/08/14 02:27:55;;;;;;;19.33;12.50;;;;;;;16.98;94.04;99095.06;8387600;28;20036;-76
2022/08/14 02:31:58;;;;;;;22.15;13.27;;;;;;;16.88;94.11;99087.41;8390930;28;20443;-76
2022/08/14 02:35:59;;;;;;;24.60;12.32;;;;;;;16.80;94.40;99075.56;8395732;28;20051;-76
2022/08/14 02:40:01;;;;;;;23.17;13.90;;;;;;;16.76;94.39;99073.88;8393392;28;20424;-75
2022/08/14 02:44:09;;;;;;;19.20;13.07;;;;;;;16.70;94.45;99064.34;8391642;28;20074;-76
2022/08/14 02:48:11;;;;;;;19.73;13.65;;;;;;;16.70;94.21;99064.34;8395937;28;20106;-77
2022/08/14 02:52:12;;;;;;;20.38;13.75;;;;;;;16.71;94.33;99061.25;8344240;28;20484;-75
2022/08/14 02:56:15;;;;;;;21.13;12.77;;;;;;;16.73;93.94;99063.66;8389684;28;20048;-76
2022/08/14 03:00:15;;;;;;;18.58;13.48;;;;;;;16.73;94.12;99058.19;8387122;28;20486;-76
2022/08/14 03:04:17;;;;;;;20.17;11.95;;;;;;;16.67;94.22;99065.03;8371472;28;20049;-75
2022/08/14 03:08:18;;;;;;;16.00;11.45;;;;;;;16.63;94.10;99055.97;8380989;28;20127;-76
2022/08/14 03:12:20;;;;;;;14.75;11.43;;;;;;;16.58;93.98;99056.22;8374517;28;20048;-75
2022/08/14 03:16:23;;;;;;;16.80;11.70;;;;;;;16.47;94.03;99051.28;8384360;28;20135;-76
2022/08/14 03:20:26;;;;;;;24.65;13.60;;;;;;;16.41;94.32;99058.09;8396334;28;20048;-76
2022/08/14 03:24:27;;;;;;;27.73;14.98;;;;;;;16.39;94.35;99054.16;8390892;28;20052;-75
2022/08/14 03:28:29;;;;;;;30.45;14.27;;;;;;;16.36;94.39;99050.19;8358829;28;20416;-75
2022/08/14 03:32:32;;;;;;;21.77;14.70;;;;;;;16.31;94.39;99041.47;8370716;28;20052;-76
2022/08/14 03:36:33;;;;;;;22.75;15.68;;;;;;;16.29;94.21;99044.53;8362055;28;20041;-76
2022/08/14 03:40:34;;;;;;;23.90;15.82;;;;;;;16.26;94.23;99039.78;8387035;28;20419;-76
2022/08/14 03:44:35;;;;;;;27.75;16.15;;;;;;;16.25;94.52;99038.19;8392619;28;20044;-76
2022/08/14 03:48:38;;;;;;;32.00;16.85;;;;;;;16.25;94.43;99038.19;8393539;28;20052;-76
2022/08/14 03:52:42;;;;;;;22.48;15.73;;;;;;;16.26;94.71;99028.88;8379703;28;20063;-76
2022/08/14 03:56:44;;;;;;;19.63;14.52;;;;;;;16.31;94.70;99031.38;8343516;28;20150;-76
2022/08/14 04:00:45;;;;;;;22.25;15.82;;;;;;;16.32;94.69;99032.94;8395155;28;20041;-76
2022/08/14 04:04:45;;;;;;;32.35;16.27;;;;;;;16.37;94.90;99029.97;8384010;28;20419;-77
2022/08/14 04:08:52;;;;;;;19.90;14.63;;;;;;;16.41;94.95;99030.06;8384928;28;20047;-76
2022/08/14 04:12:52;;;;;;;25.13;16.75;;;;;;;16.47;94.91;99034.91;8388428;28;20513;-75
2022/08/14 04:16:54;;;;;;;25.40;16.80;;;;;;;16.55;95.02;99032.38;8385509;28;20132;-76
2022/08/14 04:20:56;;;;;;;20.80;17.10;;;;;;;16.62;95.23;99038.03;8392553;28;20407;-76
2022/08/14 04:24:58;;;;;;;20.88;16.15;;;;;;;16.71;95.10;99039.44;8385083;28;20056;-76
2022/08/14 04:28:59;;;;;;;20.67;17.05;;;;;;;16.81;94.93;99044.38;8374335;28;20064;-77
2022/08/14 04:33:00;;;;;;;24.20;18.05;;;;;;;16.88;95.35;99046.50;8390037;28;20086;-76
2022/08/14 04:45:40;;;;;;;25.48;17.20;;;;;;;17.14;95.37;99029.59;8392522;28;20044;-77
2022/08/14 04:49:41;;;;;;;21.60;16.77;;;;;;;17.21;95.89;99030.56;8397974;28;20048;-76
2022/08/14 04:53:44;;;;;;;25.02;17.05;;;;;;;17.34;95.99;99022.28;8401770;28;20059;-76
2022/08/14 04:57:47;;;;;;;22.63;16.58;;;;;;;17.43;96.10;99020.94;8398044;28;20132;-76
2022/08/14 05:01:48;;;;;;;22.08;16.92;;;;;;;17.52;96.14;99029.72;8382575;28;20055;-76
2022/08/14 05:05:52;;;;;;;28.63;22.08;;;;;;;17.63;96.11;99024.50;8400792;28;20514;-76
2022/08/14 05:09:53;;;;;;;38.03;27.58;;;;;;;17.73;96.51;99035.66;8376840;28;20101;-76
2022/08/14 05:13:55;;;;;;;35.75;27.52;;;;;;;17.83;96.76;99028.84;8383377;28;20049;-76
2022/08/14 05:17:56;;;;;;;37.30;27.58;;;;;;;17.96;96.78;99027.56;8370172;28;20051;-75
2022/08/14 05:21:57;;;;;;;34.42;27.30;;;;;;;18.04;97.08;99023.03;8388045;28;20045;-76
2022/08/14 05:26:01;;;;;;;38.20;27.83;;;;;;;18.11;97.38;99018.50;8333443;28;20045;-76
2022/08/14 05:30:05;;;;;;;38.80;28.50;;;;;;;18.21;97.41;98999.94;8378850;28;20126;-76
2022/08/14 05:34:08;;;;;;;36.05;25.98;;;;;;;18.30;97.62;99008.69;8351206;28;20056;-77
2022/08/14 05:38:14;;;;;;;39.45;28.90;;;;;;;18.41;97.46;99009.69;8389383;28;20047;-75
2022/08/14 05:42:15;;;;;;;34.33;26.48;;;;;;;18.50;97.58;99018.47;8385679;28;20033;-76
2022/08/14 05:46:21;;;;;;;33.03;25.42;;;;;;;18.58;97.48;99017.47;8385671;28;20067;-75
2022/08/14 05:50:22;;;;;;;32.50;25.48;;;;;;;18.61;97.48;99008.53;8382920;28;20136;-76
2022/08/14 05:54:24;;;;;;;34.05;25.02;;;;;;;18.61;97.67;99003.06;8392506;28;20048;-76
2022/08/14 05:58:25;;;;;;;36.17;26.17;;;;;;;18.54;98.34;98997.47;8389143;28;20128;-76
2022/08/14 06:02:26;;;;;;;33.13;25.67;;;;;;;18.49;98.65;99000.47;8364772;28;20046;-75
2022/08/14 06:06:26;;;;;;;32.47;25.60;;;;;;;18.49;98.92;98997.75;8380318;28;20048;-75
2022/08/14 06:10:29;;;;;;;34.58;25.85;;;;;;;18.51;99.30;98998.94;8375954;28;20246;-76
2022/08/14 06:14:30;;;;;;;35.72;25.80;;;;;;;18.54;99.12;98992.78;8382955;28;20049;-77
2022/08/14 06:18:34;;;;;;;31.65;26.60;;;;;;;18.58;99.38;98992.84;8378042;28;20044;-76
2022/08/14 06:22:35;;;;;;;41.35;28.33;;;;;;;18.63;99.54;98989.81;8328778;28;20045;-75
2022/08/14 06:26:36;;;;;;;35.70;26.27;;;;;;;18.73;99.46;98978.25;8378781;28;20055;-76
2022/08/14 06:30:36;;;;;;;40.17;27.08;;;;;;;18.82;99.31;98976.06;8386310;28;20068;-74
2022/08/14 06:34:38;;;;;;;34.33;26.42;;;;;;;18.88;99.36;98969.13;8339935;28;20049;-75
2022/08/14 06:38:39;;;;;;;33.60;27.13;;;;;;;19.01;99.06;98971.66;8324087;28;20044;-75
2022/08/14 06:42:41;;;;;;;36.55;26.92;;;;;;;19.15;98.69;98971.88;8391170;28;20060;-76
2022/08/14 06:46:42;;;;;;;32.67;26.10;;;;;;;19.29;98.58;98966.63;8382944;28;20049;-75
2022/08/14 06:50:44;;;;;;;35.90;27.30;;;;;;;19.40;98.33;98973.03;8392878;28;20053;-76
2022/08/14 06:54:45;;;;;;;33.38;28.27;;;;;;;19.50;98.23;98966.94;8355030;28;20044;-74
2022/08/14 06:58:46;;;;;;;42.00;28.05;;;;;;;19.62;97.78;98969.44;8372056;28;20040;-75
2022/08/14 07:07:07;;;;;;;38.70;28.88;;;;;;;19.76;97.54;98977.84;8379540;28;20483;-75
2022/08/14 07:11:08;;;;;;;34.40;25.30;;;;;;;19.80;97.49;98975.94;8393845;28;20044;-76
2022/08/14 07:15:09;;;;;;;29.10;24.48;;;;;;;19.81;97.42;98972.03;8395991;28;20056;-76
2022/08/14 07:19:10;;;;;;;34.38;26.15;;;;;;;19.83;97.62;98975.19;8370355;28;20074;-76
2022/08/14 07:23:11;;;;;;;32.88;25.40;;;;;;;19.88;97.61;98971.31;8386670;28;20047;-75
2022/08/14 07:27:12;;;;;;;28.80;24.23;;;;;;;19.95;97.56;98970.63;8361500;28;20077;-75
2022/08/14 07:31:14;;;;;;;29.45;24.52;;;;;;;19.97;97.36;98962.81;8392611;28;20064;-75
2022/08/14 07:35:14;;;;;;;31.60;23.63;;;;;;;19.93;97.63;98962.00;8386783;28;20492;-76
2022/08/14 07:39:15;;;;;;;29.33;22.70;;;;;;;19.95;97.76;98959.66;8361038;28;20576;-75
2022/08/14 07:43:17;;;;;;;30.70;23.50;;;;;;;20.04;97.33;98968.41;8389168;28;20076;-75
2022/08/14 07:47:18;;;;;;;34.20;24.45;;;;;;;20.12;97.19;98964.56;8354992;28;20040;-75
2022/08/14 07:51:19;;;;;;;40.80;25.65;;;;;;;20.13;97.33;98955.19;8383767;28;20040;-75
2022/08/14 07:55:20;;;;;;;33.67;23.65;;;;;;;20.22;97.29;98952.91;8391732;28;20055;-76
2022/08/14 07:59:23;;;;;;;29.95;22.63;;;;;;;20.36;96.86;98947.59;8387987;28;20052;-75
2022/08/14 08:03:26;;;;;;;26.25;22.92;;;;;;;20.47;96.32;98947.69;8387530;28;20060;-75
2022/08/14 08:07:30;;;;;;;27.80;22.17;;;;;;;20.51;95.97;98956.75;8352123;28;20097;-75
2022/08/14 08:11:34;;;;;;;25.48;21.25;;;;;;;20.56;96.26;98962.69;8372312;28;20545;-75
2022/08/14 08:15:47;;;;;;;30.38;22.45;;;;;;;20.48;96.35;98966.53;8348253;28;20051;-75
2022/08/14 08:19:48;;;;;;;30.08;22.00;;;;;;;20.60;96.14;98963.50;8391975;28;20086;-75
2022/08/14 08:23:49;;;;;;;30.13;22.92;;;;;;;20.83;94.91;98965.28;8386708;28;20082;-75
2022/08/14 08:27:57;;;;;;;25.50;21.08;;;;;;;21.03;94.75;98939.16;8381394;28;20070;-76
2022/08/14 08:31:58;;;;;;;27.97;22.40;;;;;;;21.39;92.91;98943.72;8384841;28;20114;-76
2022/08/14 08:36:05;;;;;;;29.98;20.55;;;;;;;21.60;91.33;98942.22;8364916;28;20299;-75
2022/08/14 08:40:09;;;;;;;39.10;20.52;;;;;;;21.62;91.25;98939.91;8387374;28;20518;-76
2022/08/14 08:44:10;;;;;;;27.85;20.40;;;;;;;21.66;90.85;98951.69;8380495;28;20052;-77
2022/08/14 08:48:12;;;;;;;25.00;19.80;;;;;;;21.79;90.33;98933.66;8393602;28;20057;-77
2022/08/14 08:52:14;;;;;;;25.35;19.95;;;;;;;21.85;90.39;98926.63;8392412;28;20064;-77
2022/08/14 08:56:15;;;;;;;21.42;17.75;;;;;;;22.05;90.04;98927.88;8391466;28;20040;-77
2022/08/14 09:00:17;;;;;;;24.60;18.13;;;;;;;22.26;88.50;98929.91;8377874;28;20399;-75
2022/08/14 09:04:19;;;;;;;19.95;16.63;;;;;;;22.37;88.37;98918.91;8385121;28;20499;-77
2022/08/14 09:08:25;;;;;;;23.92;17.63;;;;;;;22.63;87.20;98921.31;8387021;28;20052;-76
2022/08/14 09:12:30;;;;;;;24.92;17.17;;;;;;;22.68;86.52;98918.16;8362954;28;20049;-76
2022/08/14 09:16:31;;;;;;;23.15;15.60;;;;;;;22.63;87.17;98913.03;8386272;28;20399;-76
2022/08/14 09:20:32;;;;;;;18.85;13.80;;;;;;;22.61;86.36;98912.63;8380179;28;20045;-77
2022/08/14 09:24:33;;;;;;;15.48;12.50;;;;;;;22.53;86.32;98911.06;8371740;28;20053;-78
2022/08/14 09:28:34;;;;;;;19.02;13.75;;;;;;;22.50;86.37;98904.38;8368092;28;20700;-77
2022/08/14 09:32:45;;;;;;;21.40;14.43;;;;;;;22.55;86.38;98908.72;8347034;28;20061;-76
2022/08/14 09:37:26;;;;;;;21.58;15.48;;;;;;;22.59;86.08;98892.97;8296868;28;20049;-77
2022/08/14 09:41:52;;;;;;;25.77;14.25;;;;;;;22.53;86.12;98895.31;8316588;28;20053;-77
2022/08/14 09:45:57;;;;;;;16.33;12.80;;;;;;;22.54;86.55;98896.13;8334503;28;20149;-77
2022/08/14 09:49:58;;;;;;;15.52;13.30;;;;;;;22.73;86.13;98882.00;8322962;28;20056;-76
2022/08/14 09:54:11;;;;;;;22.85;14.10;;;;;;;22.84;85.35;98877.25;8327413;28;20052;-76
2022/08/14 09:58:17;;;;;;;17.58;11.52;;;;;;;22.92;84.78;98878.81;8315098;28;20378;-77
2022/08/14 10:02:21;;;;;;;21.70;10.70;;;;;;;23.01;82.51;98870.91;8315071;28;20085;-77
2022/08/14 10:06:26;;;;;;;15.27;9.95;;;;;;;23.25;80.92;98863.00;8322130;28;20078;-76
2022/08/14 10:10:30;;;;;;;14.88;10.63;;;;;;;23.44;80.14;98865.28;8323948;28;20409;-78
2022/08/14 10:14:33;;;;;;;19.95;10.32;;;;;;;23.64;79.25;98869.16;8316171;28;20065;-79
2022/08/14 10:18:34;;;;;;;17.20;10.35;;;;;;;23.74;78.29;98862.78;8312809;28;20492;-78
2022/08/14 10:22:35;;;;;;;16.48;10.48;;;;;;;23.67;78.39;98851.81;8302123;28;20069;-77
2022/08/14 10:26:36;;;;;;;16.27;10.55;;;;;;;23.57;78.50;98855.41;8301854;28;20366;-78
2022/08/14 10:30:39;;;;;;;14.70;9.25;;;;;;;23.67;77.80;98857.34;8329638;28;20488;-78
2022/08/14 10:34:40;;;;;;;15.95;9.57;;;;;;;23.73;77.35;98860.47;8365633;28;20049;-77
2022/08/14 10:38:41;;;;;;;16.38;9.65;;;;;;;23.56;77.07;98856.59;8372296;28;20045;-78
2022/08/14 10:42:44;;;;;;;13.38;9.85;;;;;;;23.27;77.38;98853.13;8371267;28;20049;-77
2022/08/14 10:46:51;;;;;;;10.52;9.05;;;;;;;22.98;77.74;98849.69;8395675;28;20078;-77
2022/08/14 10:50:53;;;;;;;11.55;8.57;;;;;;;22.82;79.09;98846.59;8397773;28;20135;-78
2022/08/14 10:55:13;;;;;;;13.80;9.18;;;;;;;22.80;79.29;98859.94;8365383;28;20059;-77
2022/08/14 10:59:14;;;;;;;21.80;10.00;;;;;;;22.87;80.10;98857.19;8378331;28;20048;-76
2022/08/14 11:03:17;;;;;;;14.20;9.80;;;;;;;22.89;80.99;98852.09;8378498;28;20060;-76
2022/08/14 11:07:40;;;;;;;17.98;10.88;;;;;;;22.79;81.56;98855.63;8371195;28;20396;-75
2022/08/14 11:11:42;;;;;;;14.40;9.95;;;;;;;22.66;82.79;98854.44;8320352;28;20204;-76
2022/08/14 11:21:00;;;;;;;16.80;12.80;;;;;;;22.35;85.30;98866.25;8326064;28;20081;-77
2022/08/14 11:25:29;;;;;;;20.70;12.18;;;;;;;22.04;87.48;98878.78;8341104;28;20037;-76
2022/08/14 11:29:31;;;;;;;21.35;13.63;;;;;;;21.74;89.87;98871.63;8338213;28;20611;-76
2022/08/14 11:33:34;;;;;;;25.67;13.68;;;;;;;21.71;90.75;98874.34;8358771;28;20520;-76
2022/08/14 11:37:35;;;;;;;21.77;14.50;;;;;;;21.75;90.94;98861.41;8343733;28;20045;-76
2022/08/14 11:41:38;;;;;;;20.27;13.73;;;;;;;21.80;91.46;98852.78;8376078;28;20519;-78
2022/08/14 11:45:39;;;;;;;22.02;14.43;;;;;;;21.90;91.49;98863.00;8401924;28;20048;-76
2022/08/14 11:49:41;;;;;;;23.02;14.60;;;;;;;21.97;91.32;98852.06;8405461;28;20041;-76
2022/08/14 11:53:49;;;;;;;18.65;12.82;;;;;;;21.99;91.84;98849.72;8405469;28;20396;-77
2022/08/14 11:57:58;;;;;;;;;;;;;;;22.03;91.88;98850.50;8408552;28;20439;-77
2022/08/14 12:02:10;;;;;;;19.27;13.73;;;;;;;22.00;92.50;98840.28;8398747;28;20007;-77
2022/08/14 12:06:17;;;;;;;18.38;14.20;;;;;;;21.97;93.11;98841.06;8384826;28;20463;-76
2022/08/14 12:10:19;;;;;;;22.35;13.63;;;;;;;21.95;93.36;98826.91;8339825;28;20045;-75
2022/08/14 12:14:23;;;;;;;22.60;14.02;;;;;;;21.92;93.77;98827.69;8365885;28;20393;-76
2022/08/14 12:18:46;;;;;;;24.08;14.13;;;;;;;21.98;93.88;98825.38;8363477;28;20045;-77
2022/08/14 12:22:47;;;;;;;20.42;14.32;;;;;;;22.10;93.55;98823.00;8358664;28;20048;-77
2022/08/14 12:26:55;;;;;;;38.05;27.58;;;;;;;22.15;93.51;98819.88;8379420;28;20045;-77
2022/08/14 12:30:57;;;;;;;20.50;15.30;;;;;;;22.23;93.44;98810.44;8366248;28;20064;-77
2022/08/14 12:34:58;;;;;;;23.60;15.20;;;;;;;22.33;92.77;98804.16;8345808;28;20122;-78
2022/08/14 12:39:00;;;;;;;20.98;13.18;;;;;;;22.48;93.07;98804.13;8359518;28;20059;-77
2022/08/14 12:43:04;;;;;;;17.40;12.85;;;;;;;22.76;92.83;98809.63;8395713;28;20045;-78
2022/08/14 12:47:16;;;;;;;23.00;13.38;;;;;;;22.89;92.49;98797.03;8349152;28;20128;-77
2022/08/14 12:51:20;;;;;;;21.67;13.45;;;;;;;22.90;92.47;98798.56;8385487;28;20132;-77
2022/08/14 12:55:21;;;;;;;25.75;14.68;;;;;;;22.86;92.79;98791.50;8356606;28;20041;-78
2022/08/14 12:59:32;;;;;;;19.55;13.00;;;;;;;22.80;93.20;98782.06;8358765;28;20444;-77
2022/08/14 13:03:33;;;;;;;18.15;13.57;;;;;;;22.70;93.49;98789.16;8390340;28;20036;-76
2022/08/14 13:07:39;;;;;;;21.55;14.82;;;;;;;22.68;93.55;98797.03;8401100;28;20060;-75
2022/08/14 13:11:50;;;;;;;20.02;13.88;;;;;;;22.70;93.72;98794.66;8381005;28;20072;-77
2022/08/14 13:15:53;;;;;;;19.23;13.93;;;;;;;22.79;93.45;98781.28;8396308;28;20076;-77
2022/08/14 13:19:56;;;;;;;16.73;13.45;;;;;;;23.01;92.66;98771.78;8381416;28;20549;-76
2022/08/14 13:23:56;;;;;;;20.83;14.10;;;;;;;23.26;90.95;98766.19;8387587;28;20135;-76
2022/08/14 13:27:58;;;;;;;21.02;14.38;;;;;;;23.69;89.89;98761.22;8384951;28;20447;-76
2022/08/14 13:31:59;;;;;;;19.25;13.43;;;;;;;24.47;86.70;98766.13;8384085;28;20071;-76
2022/08/14 13:36:02;;;;;;;27.63;16.27;;;;;;;24.32;86.99;98772.97;8374076;28;20499;-76
2022/08/14 13:40:04;;;;;;;22.73;14.93;;;;;;;23.44;88.98;98799.13;8363399;28;20049;-76
2022/08/14 13:44:09;;;;;;;21.92;13.30;;;;;;;22.64;91.82;98801.75;8399242;28;20036;-76
2022/08/14 13:48:10;;;;;;;22.27;12.25;;;;;;;21.91;94.28;98776.63;8394065;28;20201;-76
2022/08/14 13:52:13;;;;;;;28.92;17.65;;;;;;;21.29;96.68;98774.16;8384471;28;20056;-76
2022/08/14 13:56:15;;;;;;;23.52;15.80;;;;;;;21.14;97.26;98761.56;8387382;28;20407;-76
2022/08/14 14:00:17;;;;;;;20.27;14.43;;;;;;;21.03;97.39;98766.19;8381148;28;20490;-77
2022/08/14 14:04:23;;;;;;;24.25;15.75;;;;;;;21.02;97.47;98759.13;8374604;28;20033;-76
2022/08/14 14:08:24;;;;;;;21.05;15.10;;;;;;;21.02;97.22;98748.13;8347721;28;20499;-76
2022/08/14 14:12:25;;;;;;;20.75;14.57;;;;;;;21.08;97.04;98746.59;8394235;28;20052;-75
2022/08/14 14:16:26;;;;;;;23.17;14.95;;;;;;;21.06;97.27;98737.94;8330989;28;20921;-77
2022/08/14 14:20:27;;;;;;;18.88;14.90;;;;;;;20.97;97.26;98734.78;8390094;28;20041;-77
2022/08/14 14:24:28;;;;;;;21.92;15.25;;;;;;;20.99;97.06;98729.69;8335671;28;20099;-76
2022/08/14 14:28:31;;;;;;;22.58;16.13;;;;;;;21.04;96.97;98721.84;8405494;28;20044;-75
2022/08/14 14:32:32;;;;;;;21.38;15.98;;;;;;;21.19;96.43;98713.72;8349616;28;20143;-74
2022/08/14 14:36:33;;;;;;;20.70;15.07;;;;;;;21.40;95.85;98709.06;8366846;28;20404;-77
2022/08/14 14:40:37;;;;;;;20.65;16.55;;;;;;;22.21;93.46;98702.78;8375931;28;20083;-75
2022/08/14 14:44:39;;;;;;;22.05;15.88;;;;;;;23.26;89.76;98693.75;8392587;28;20064;-75
2022/08/14 14:48:43;;;;;;;21.27;15.63;;;;;;;26.42;79.25;98692.31;8362853;28;20052;-76
2022/08/14 14:52:44;;;;;;;19.00;14.98;;;;;;;29.07;70.40;98689.88;8378898;28;20131;-76
2022/08/14 14:56:45;;;;;;;20.52;13.60;;;;;;;30.56;65.89;98674.66;8386305;28;20106;-75
2022/08/14 15:00:47;;;;;;;17.00;14.48;;;;;;;32.09;61.01;98679.84;8391179;28;20052;-78
2022/08/14 15:04:48;;;;;;;15.55;12.85;;;;;;;32.94;58.87;98682.47;8378333;28;20139;-78
2022/08/14 15:08:51;;;;;;;15.75;12.48;;;;;;;33.37;56.01;98686.09;8384308;28;20056;-77
2022/08/14 15:12:53;;;;;;;15.77;12.38;;;;;;;33.67;55.08;98684.25;8382893;28;20048;-79
2022/08/14 15:16:54;;;;;;;15.82;12.80;;;;;;;32.52;56.57;98684.41;8386505;28;20069;-79
2022/08/14 15:20:56;;;;;;;14.63;11.85;;;;;;;31.11;60.07;98690.97;8384237;28;20047;-79
2022/08/14 15:24:57;;;;;;;12.88;11.18;;;;;;;29.54;63.71;98701.19;8366400;28;20436;-78
2022/08/14 15:29:03;;;;;;;13.95;11.57;;;;;;;28.05;67.62;98685.91;8385727;28;20032;-79
2022/08/14 15:33:04;;;;;;;15.20;11.73;;;;;;;27.40;69.87;98681.56;8368343;28;20144;-79
2022/08/14 15:37:06;;;;;;;15.85;11.98;;;;;;;26.69;71.71;98677.53;8380593;28;20040;-78
2022/08/14 15:41:07;;;;;;;16.38;12.35;;;;;;;25.82;74.29;98670.41;8378992;28;20048;-79
2022/08/14 15:45:09;;;;;;;15.90;12.27;;;;;;;25.59;75.07;98674.72;8390194;28;20041;-79
2022/08/14 15:49:11;;;;;;;17.90;11.77;;;;;;;25.45;76.41;98669.41;8360567;28;20056;-79
2022/08/14 15:53:12;;;;;;;13.52;11.32;;;;;;;25.21;76.62;98667.81;8346313;28;20092;-77
2022/08/14 15:57:13;;;;;;;14.23;12.27;;;;;;;24.78;78.08;98664.81;8385463;28;20455;-79
2022/08/14 16:01:22;;;;;;;13.40;11.48;;;;;;;24.49;78.77;98664.34;8384122;28;20127;-79
2022/08/14 16:05:24;;;;;;;;;;;;;;;24.23;79.35;98662.28;8378802;28;20048;-78
2022/08/14 16:09:25;;;;;;;14.40;11.57;;;;;;;24.19;80.41;98658.78;8380417;28;20027;-79
2022/08/14 16:13:28;;;;;;;16.63;11.90;;;;;;;24.08;80.61;98653.34;8327753;28;20052;-78
2022/08/14 16:17:30;;;;;;;14.50;11.05;;;;;;;24.05;81.29;98656.16;8382120;28;20048;-76
2022/08/14 16:21:31;;;;;;;17.23;12.38;;;;;;;24.11;81.88;98649.75;8389696;28;21367;-78
2022/08/14 16:25:35;;;;;;;18.65;10.10;;;;;;;24.12;81.42;98653.28;8367467;28;20280;-78
2022/08/14 16:29:40;;;;;;;15.48;11.40;;;;;;;24.07;81.02;98654.53;8349835;28;20482;-79
2022/08/14 16:33:41;;;;;;;13.85;11.80;;;;;;;23.99;81.57;98656.59;8386402;28;20082;-78
2022/08/14 16:37:42;;;;;;;17.17;12.05;;;;;;;23.94;82.19;98657.03;8385901;28;20098;-78
2022/08/14 16:41:44;;;;;;;16.85;11.70;;;;;;;23.79;82.69;98649.31;8385955;28;20045;-78
2022/08/14 16:45:47;;;;;;;17.52;11.43;;;;;;;23.66;83.90;98646.25;8335315;28;20090;-78
2022/08/14 16:49:51;;;;;;;13.15;11.13;;;;;;;23.50;84.47;98643.22;8390185;28;20037;-78
2022/08/14 16:53:53;;;;;;;13.48;11.18;;;;;;;23.44;84.44;98639.31;8384193;28;20068;-78
2022/08/14 16:57:55;;;;;;;20.70;11.20;;;;;;;23.46;84.67;98642.47;8372073;28;20504;-78
2022/08/14 17:01:59;;;;;;;15.40;10.73;;;;;;;23.39;84.86;98642.50;8389289;28;20047;-78
2022/08/14 17:06:00;;;;;;;15.48;11.45;;;;;;;23.30;85.12;98650.44;8384610;28;20045;-78
2022/08/14 17:10:06;;;;;;;16.55;12.02;;;;;;;23.17;86.11;98659.16;8376762;28;20131;-78
2022/08/14 17:14:07;;;;;;;17.27;11.98;;;;;;;23.07;86.64;98662.78;8380834;28;20428;-78
2022/08/14 17:18:08;;;;;;;14.63;11.77;;;;;;;23.01;87.45;98661.63;8380397;28;20049;-78
2022/08/14 17:22:12;;;;;;;15.50;11.57;;;;;;;22.96;87.86;98659.28;8380474;28;20575;-78
2022/08/14 17:26:35;;;;;;;15.00;12.20;;;;;;;22.88;89.02;98651.47;8376375;28;20131;-78
2022/08/14 17:31:06;;;;;;;16.90;12.60;;;;;;;22.70;89.79;98651.53;8355000;28;20052;-79
2022/08/14 17:35:07;;;;;;;16.55;12.05;;;;;;;22.59;90.42;98656.28;8289797;28;20061;-78
2022/08/14 17:39:13;;;;;;;15.50;11.55;;;;;;;22.51;91.01;98649.25;8289571;28;20057;-78
2022/08/14 17:43:14;;;;;;;16.65;12.02;;;;;;;22.41;91.56;98645.38;8287284;28;20061;-78
2022/08/14 17:47:15;;;;;;;15.55;12.05;;;;;;;22.33;91.93;98644.59;8295388;28;20054;-78
2022/08/14 17:51:16;;;;;;;15.35;12.20;;;;;;;22.21;92.52;98647.75;8294311;28;20090;-78
2022/08/14 17:55:20;;;;;;;17.27;11.90;;;;;;;22.16;92.86;98648.16;8291684;28;20057;-78
2022/08/14 17:59:22;;;;;;;16.15;11.88;;;;;;;22.11;92.93;98637.56;8297284;28;20065;-79
2022/08/14 18:03:25;;;;;;;25.50;12.60;;;;;;;22.02;93.14;98639.97;8279320;28;20042;-79
2022/08/14 18:07:28;;;;;;;17.83;12.43;;;;;;;21.92;93.74;98635.25;8296220;28;20180;-78
2022/08/14 18:11:29;;;;;;;24.65;13.93;;;;;;;21.83;94.05;98632.13;8365245;28;20048;-80
2022/08/14 18:15:31;;;;;;;19.13;13.07;;;;;;;21.68;94.41;98636.06;8350366;28;20056;-79
2022/08/14 18:19:36;;;;;;;14.68;12.48;;;;;;;21.54;94.61;98647.03;8331541;28;20072;-80
2022/08/14 18:23:39;;;;;;;18.27;13.20;;;;;;;21.44;94.88;98637.63;8390734;28;20702;-80
2022/08/14 18:27:45;;;;;;;19.60;13.13;;;;;;;21.36;94.55;98647.03;8328248;28;20055;-80
2022/08/14 18:31:46;;;;;;;19.55;13.35;;;;;;;21.26;94.67;98648.59;8381092;28;20060;-79
2022/08/14 18:35:50;;;;;;;17.20;12.90;;;;;;;21.16;94.86;98649.34;8336298;28;20132;-80
2022/08/14 18:39:52;;;;;;;18.10;12.48;;;;;;;21.06;94.99;98650.09;8378162;28;20150;-78
2022/08/14 18:43:53;;;;;;;17.38;11.98;;;;;;;20.99;95.05;98650.09;8384774;28;20051;-79
2022/08/14 18:48:19;;;;;;;17.73;12.40;;;;;;;20.90;95.34;98652.41;8392551;28;20483;-79
2022/08/14 18:52:36;;;;;;;17.88;11.32;;;;;;;20.77;95.48;98656.69;8391264;28;20542;-79
2022/08/14 18:57:02;;;;;;;16.85;11.23;;;;;;;20.65;95.86;98664.09;8382980;28;20052;-78
2022/08/14 19:01:04;;;;;;;14.80;11.48;;;;;;;20.62;95.64;98658.59;8390014;28;20064;-79